createdAt,value
2018-09-17T00:00:06.826Z,67.43
2018-09-17T00:02:34.013Z,67.80
2018-09-17T00:05:01.157Z,67.54
2018-09-17T00:07:28.440Z,67.74
2018-09-17T00:09:55.670Z,68.28
2018-09-17T00:12:22.929Z,68.22
2018-09-17T00:14:50.066Z,68.19
2018-09-17T00:17:17.243Z,67.69
2018-09-17T00:19:44.529Z,68.34
2018-09-17T00:22:11.726Z,67.69
2018-09-17T00:24:39.005Z,68.32
2018-09-17T00:27:06.275Z,67.85
2018-09-17T00:29:33.610Z,68.26
2018-09-17T00:32:00.838Z,68.48
2018-09-17T00:34:28.125Z,68.58
2018-09-17T00:36:55.352Z,68.14
2018-09-17T00:39:22.666Z,68.64
2018-09-17T00:41:49.830Z,69.24
2018-09-17T00:44:16.996Z,69.50
2018-09-17T00:46:44.189Z,69.62
2018-09-17T00:49:11.537Z,69.90
2018-09-17T00:51:38.881Z,69.01
2018-09-17T00:54:06.214Z,68.83
2018-09-17T00:56:33.477Z,68.57
2018-09-17T00:59:00.742Z,68.76
2018-09-17T01:01:27.913Z,68.99
2018-09-17T01:03:55.109Z,69.90
2018-09-17T01:06:22.493Z,69.71
2018-09-17T01:08:49.725Z,70.35
2018-09-17T01:11:16.919Z,70.04
2018-09-17T01:13:44.143Z,69.68
2018-09-17T01:16:11.625Z,70.71
2018-09-17T01:18:38.822Z,70.35
2018-09-17T01:21:06.131Z,69.45
2018-09-17T01:23:33.353Z,69.44
2018-09-17T01:26:00.668Z,70.06
2018-09-17T01:28:27.919Z,70.80
2018-09-17T01:30:55.215Z,70.60
2018-09-17T01:33:22.425Z,70.59
2018-09-17T01:35:49.633Z,70.04
2018-09-17T01:38:16.844Z,70.02
2018-09-17T01:40:44.121Z,70.47
2018-09-17T01:43:11.327Z,70.05
2018-09-17T01:45:38.581Z,69.78
2018-09-17T01:48:05.754Z,70.18
2018-09-17T01:50:32.980Z,69.77
2018-09-17T01:53:00.235Z,70.02
2018-09-17T01:55:27.558Z,69.78
2018-09-17T01:57:54.738Z,71.14
2018-09-17T02:00:21.967Z,71.14
2018-09-17T02:02:49.199Z,70.08
2018-09-17T02:05:16.355Z,70.41
2018-09-17T02:07:43.536Z,70.64
2018-09-17T02:10:10.756Z,70.65
2018-09-17T02:12:37.928Z,70.61
2018-09-17T02:15:05.087Z,70.69
2018-09-17T02:17:32.443Z,70.75
2018-09-17T02:19:59.677Z,70.33
2018-09-17T02:22:26.891Z,70.63
2018-09-17T02:24:54.123Z,70.34
2018-09-17T02:27:21.429Z,71.00
2018-09-17T02:29:48.618Z,70.84
2018-09-17T02:32:15.918Z,71.30
2018-09-17T02:34:43.163Z,71.12
2018-09-17T02:37:10.454Z,71.47
2018-09-17T02:39:37.698Z,71.62
2018-09-17T02:42:05.468Z,71.37
2018-09-17T02:44:32.715Z,71.08
2018-09-17T02:46:59.935Z,71.43
2018-09-17T02:49:27.169Z,72.21
2018-09-17T02:51:54.333Z,72.01
2018-09-17T02:54:21.614Z,71.49
2018-09-17T02:56:48.850Z,70.76
2018-09-17T02:59:16.092Z,69.72
2018-09-17T03:01:43.280Z,70.27
2018-09-17T03:04:10.733Z,70.49
2018-09-17T03:06:37.951Z,70.61
2018-09-17T03:09:07.034Z,70.72
2018-09-17T03:11:34.196Z,71.17
2018-09-17T03:14:01.383Z,71.46
2018-09-17T03:16:28.616Z,71.82
2018-09-17T03:18:57.026Z,71.45
2018-09-17T03:21:24.330Z,70.93
2018-09-17T03:23:51.541Z,71.77
2018-09-17T03:26:19.112Z,70.97
2018-09-17T03:28:46.543Z,70.42
2018-09-17T03:31:13.742Z,71.01
2018-09-17T03:33:40.940Z,70.31
2018-09-17T03:36:08.175Z,71.20
2018-09-17T03:38:41.445Z,71.17
2018-09-17T03:41:09.690Z,71.18
2018-09-17T03:43:38.247Z,71.38
2018-09-17T03:46:05.599Z,70.92
2018-09-17T03:48:33.831Z,70.56
2018-09-17T03:51:02.236Z,71.16
2018-09-17T03:53:29.781Z,70.63
2018-09-17T03:55:57.064Z,70.81
2018-09-17T03:58:24.253Z,70.25
2018-09-17T04:00:51.469Z,70.54
2018-09-17T04:03:18.662Z,71.38
2018-09-17T04:05:45.853Z,71.33
2018-09-17T04:08:13.003Z,71.52
2018-09-17T04:10:40.232Z,72.29
2018-09-17T04:13:07.973Z,71.16
2018-09-17T04:15:35.131Z,71.27
2018-09-17T04:18:02.415Z,71.34
2018-09-17T04:20:29.570Z,71.72
2018-09-17T04:22:57.061Z,71.43
2018-09-17T04:25:24.239Z,71.37
2018-09-17T04:27:51.430Z,70.68
2018-09-17T04:30:18.618Z,71.29
2018-09-17T04:32:45.816Z,71.57
2018-09-17T04:35:13.042Z,70.59
2018-09-17T04:37:40.235Z,71.29
2018-09-17T04:40:07.884Z,71.14
2018-09-17T04:42:35.981Z,71.12
2018-09-17T04:45:03.414Z,70.98
2018-09-17T04:47:30.879Z,70.87
2018-09-17T04:49:58.385Z,71.05
2018-09-17T04:52:25.627Z,71.36
2018-09-17T04:54:52.825Z,70.62
2018-09-17T04:57:20.055Z,70.46
2018-09-17T04:59:47.206Z,70.86
2018-09-17T05:02:14.814Z,70.64
2018-09-17T05:04:42.048Z,70.99
2018-09-17T05:07:09.300Z,70.84
2018-09-17T05:09:36.512Z,71.62
2018-09-17T05:12:03.739Z,71.55
2018-09-17T05:14:31.021Z,71.44
2018-09-17T05:16:58.223Z,71.34
2018-09-17T05:19:25.461Z,71.06
2018-09-17T05:21:52.766Z,71.11
2018-09-17T05:24:22.057Z,71.09
2018-09-17T05:26:49.317Z,71.37
2018-09-17T05:29:16.501Z,71.00
2018-09-17T05:31:43.705Z,71.30
2018-09-17T05:34:10.912Z,71.27
2018-09-17T05:36:38.112Z,70.97
2018-09-17T05:39:07.885Z,71.45
2018-09-17T05:41:35.093Z,70.86
2018-09-17T05:44:02.307Z,71.06
2018-09-17T05:46:29.630Z,71.12
2018-09-17T05:48:56.966Z,71.41
